FYKT

Keetmanshoop Airport

Keetmanshoop, Namibia
METAR FYKT 171000Z 03011KT 9999 FEW040 36/04 Q1016
Observed Flight Rules
Dec-17 @ 10:00 UTC (2 hours ago) Visual Flight Rules
Wind Visibility Clouds
30° at 11 knots 10,000+ meters
  • Few at 4,000' AGL
Temperatures Readings
Current 36°C / 97°F
Dewpoint 4°C / 39°F
Humidity 13%
Altimeter 30" Hg
Pressure 1016 hPa
Elevation 1061
METAR FYKT 171000Z 03011KT 9999 FEW040 36/04 Q1016
Observed Flight Rules
Dec-17 @ 10:00 UTC
(2 hours ago)
VFR
Wind Visibility
30° at 11 knots 10,000+ meters
Clouds
  • Few at 4,000' AGL
Temperature Dewpoint
36°C / 97°F 4°C / 39°F
Humidity Altimeter Pressure
13% 30" Hg 1016 hPa